createdAt,value
2018-12-15T00:01:38.780Z,-0.60
2018-12-15T00:04:05.068Z,-0.60
2018-12-15T00:06:31.452Z,-0.50
2018-12-15T00:08:57.741Z,-0.60
2018-12-15T00:11:24.017Z,-0.60
2018-12-15T00:13:50.292Z,-0.60
2018-12-15T00:16:16.712Z,-0.70
2018-12-15T00:18:43.029Z,-0.80
2018-12-15T00:21:09.305Z,-1.00
2018-12-15T00:23:35.572Z,-0.80
2018-12-15T00:26:01.870Z,-0.70
2018-12-15T00:28:28.128Z,-0.70
2018-12-15T00:30:54.440Z,-0.70
2018-12-15T00:33:20.729Z,-0.70
2018-12-15T00:35:47.020Z,-0.70
2018-12-15T00:38:13.312Z,-0.60
2018-12-15T00:40:39.601Z,-0.70
2018-12-15T00:43:05.894Z,-0.50
2018-12-15T00:45:32.178Z,-0.70
2018-12-15T00:47:58.458Z,-0.80
2018-12-15T00:50:24.726Z,-0.80
2018-12-15T00:52:51.002Z,-0.80
2018-12-15T00:55:17.308Z,-0.70
2018-12-15T00:57:43.624Z,-0.70
2018-12-15T01:00:09.929Z,-0.80
2018-12-15T01:02:36.213Z,-0.80
2018-12-15T01:05:02.612Z,-0.60
2018-12-15T01:07:28.973Z,-0.60
2018-12-15T01:09:55.261Z,-0.80
2018-12-15T01:12:21.534Z,-0.90
2018-12-15T01:14:47.856Z,-0.90
2018-12-15T01:17:20.315Z,-0.70
2018-12-15T01:19:42.481Z,-1.40
2018-12-15T01:22:08.797Z,-0.90
2018-12-15T01:24:35.085Z,-0.80
2018-12-15T01:27:01.360Z,-0.80
2018-12-15T01:29:27.641Z,-0.80
2018-12-15T01:31:53.914Z,-0.90
2018-12-15T01:34:20.181Z,-0.80
2018-12-15T01:36:46.500Z,-0.80
2018-12-15T01:39:12.769Z,-0.70
2018-12-15T01:41:39.192Z,-0.90
2018-12-15T01:44:05.499Z,-0.90
2018-12-15T01:46:31.774Z,-0.80
2018-12-15T01:48:58.149Z,-0.80
2018-12-15T01:51:24.443Z,-0.80
2018-12-15T01:53:50.718Z,-0.80
2018-12-15T01:56:16.990Z,-0.80
2018-12-15T01:58:43.363Z,-0.80
2018-12-15T02:01:09.648Z,-0.60
2018-12-15T02:03:35.935Z,-1.10
2018-12-15T02:06:02.221Z,-0.70
2018-12-15T02:08:28.595Z,-0.50
2018-12-15T02:10:54.862Z,-1.10
2018-12-15T02:13:21.133Z,-0.70
2018-12-15T02:15:47.441Z,-0.70
2018-12-15T02:18:13.717Z,-0.70
2018-12-15T02:20:40.045Z,-0.60
2018-12-15T02:23:06.319Z,-0.60
2018-12-15T02:25:32.592Z,-0.70
2018-12-15T02:27:58.874Z,-0.70
2018-12-15T02:30:25.275Z,-0.60
2018-12-15T02:32:51.569Z,-0.90
2018-12-15T02:35:18.193Z,-0.70
2018-12-15T02:37:44.536Z,-0.60
2018-12-15T02:40:10.960Z,-0.70
2018-12-15T02:42:37.398Z,-0.60
2018-12-15T02:45:03.925Z,-0.70
2018-12-15T02:47:30.200Z,-0.80
2018-12-15T02:49:56.488Z,-0.70
2018-12-15T02:52:22.776Z,-0.70
2018-12-15T02:54:49.050Z,-0.80
2018-12-15T02:57:15.312Z,-0.60
2018-12-15T02:59:41.577Z,-0.70
2018-12-15T03:02:07.849Z,-0.80
2018-12-15T03:04:34.160Z,-0.80
2018-12-15T03:07:00.445Z,-0.80
2018-12-15T03:09:26.786Z,-0.80
2018-12-15T03:11:53.070Z,-1.30
2018-12-15T03:14:19.357Z,-0.70
2018-12-15T03:16:57.657Z,-1.00
2018-12-15T03:19:23.936Z,-0.90
2018-12-15T03:21:50.217Z,-1.00
2018-12-15T03:24:16.532Z,-0.90
2018-12-15T03:26:42.815Z,-0.90
2018-12-15T03:29:09.095Z,-0.90
2018-12-15T03:31:35.358Z,-0.90
2018-12-15T03:34:01.644Z,-1.00
2018-12-15T03:36:28.057Z,-0.90
2018-12-15T03:38:54.383Z,-1.00
2018-12-15T03:41:20.709Z,-0.90
2018-12-15T03:43:47.110Z,-0.90
2018-12-15T03:46:13.405Z,-1.00
2018-12-15T03:48:39.669Z,-0.80
2018-12-15T03:51:05.950Z,-1.30
2018-12-15T03:53:32.228Z,-1.00
2018-12-15T03:55:58.501Z,-0.90
2018-12-15T03:58:24.790Z,-1.00
2018-12-15T04:00:51.066Z,-1.00
2018-12-15T04:03:17.348Z,-1.10
2018-12-15T04:05:43.673Z,-1.10
2018-12-15T04:08:10.058Z,-1.10
2018-12-15T04:10:36.398Z,-0.80
2018-12-15T04:13:02.673Z,-1.00
2018-12-15T04:15:28.949Z,-1.10
2018-12-15T04:17:55.233Z,-1.00
2018-12-15T04:20:21.500Z,-0.90
2018-12-15T04:22:47.796Z,-1.00
2018-12-15T04:25:14.066Z,-0.80
2018-12-15T04:27:40.340Z,-0.80
2018-12-15T04:30:07.025Z,-1.40
2018-12-15T04:32:33.304Z,-1.10
2018-12-15T04:34:59.606Z,-1.10
2018-12-15T04:37:25.899Z,-1.00
2018-12-15T04:39:52.181Z,-1.00
2018-12-15T04:42:18.452Z,-1.10
2018-12-15T04:44:45.129Z,-1.10
2018-12-15T04:47:12.444Z,-1.00
2018-12-15T04:49:38.718Z,-1.10
2018-12-15T04:52:05.014Z,-1.10
2018-12-15T04:54:31.459Z,-1.10
2018-12-15T04:56:57.747Z,-1.10
2018-12-15T04:59:24.038Z,-1.10
2018-12-15T05:01:50.332Z,-0.80
2018-12-15T05:04:16.601Z,-1.00
2018-12-15T05:06:42.901Z,-1.00
2018-12-15T05:09:09.192Z,-0.90
2018-12-15T05:11:35.736Z,-1.00
2018-12-15T05:14:02.040Z,-0.90
2018-12-15T05:16:28.309Z,-1.00
2018-12-15T05:18:54.584Z,-1.00
2018-12-15T05:21:20.853Z,-1.00
2018-12-15T05:23:47.148Z,-1.00
2018-12-15T05:26:13.424Z,-0.80
2018-12-15T05:28:39.705Z,-1.00
2018-12-15T05:31:05.988Z,-0.90
2018-12-15T05:33:32.272Z,-0.80
2018-12-15T05:35:58.572Z,-1.10
2018-12-15T05:38:24.844Z,-1.10
2018-12-15T05:40:51.216Z,-0.90
2018-12-15T05:43:17.486Z,-1.20
2018-12-15T05:45:43.968Z,-1.40
2018-12-15T05:48:10.241Z,-1.90
2018-12-15T05:50:36.517Z,-2.00
2018-12-15T05:53:02.831Z,-1.30
2018-12-15T05:55:29.110Z,-1.50
2018-12-15T05:57:55.414Z,-1.30
2018-12-15T06:00:21.692Z,-1.30
2018-12-15T06:02:48.001Z,-1.40
2018-12-15T06:05:14.529Z,-1.50
2018-12-15T06:07:40.813Z,-1.40
2018-12-15T06:10:07.341Z,-1.40
2018-12-15T06:12:33.687Z,-1.20
2018-12-15T06:15:00.408Z,-1.10
2018-12-15T06:17:26.672Z,-1.70
2018-12-15T06:19:52.980Z,-1.30
2018-12-15T06:22:19.252Z,-1.30
2018-12-15T06:24:45.525Z,-1.40
2018-12-15T06:27:11.876Z,-1.40
2018-12-15T06:29:38.156Z,-1.50
2018-12-15T06:32:04.440Z,-1.50
2018-12-15T06:34:30.736Z,-1.30
2018-12-15T06:36:57.022Z,-1.50
2018-12-15T06:39:23.291Z,-1.40
2018-12-15T06:41:49.617Z,-1.30
2018-12-15T06:44:15.891Z,-1.30
2018-12-15T06:46:42.273Z,-1.30
2018-12-15T06:49:08.584Z,-1.30
2018-12-15T06:51:34.949Z,-1.50
2018-12-15T06:54:01.249Z,-1.50
2018-12-15T06:56:27.536Z,-1.50
2018-12-15T06:58:53.948Z,-1.30
2018-12-15T07:01:27.236Z,-1.20
2018-12-15T07:03:53.512Z,-1.20
2018-12-15T07:06:19.804Z,-1.20
2018-12-15T07:08:46.089Z,-1.00
2018-12-15T07:11:19.308Z,-1.10
2018-12-15T07:13:46.102Z,-1.40
2018-12-15T07:16:12.377Z,-1.30
2018-12-15T07:18:44.634Z,-1.30
2018-12-15T07:21:06.997Z,-1.40
2018-12-15T07:23:33.277Z,-1.40
2018-12-15T07:25:59.557Z,-1.50
2018-12-15T07:28:25.861Z,-1.30
2018-12-15T07:30:58.961Z,-1.50
2018-12-15T07:33:25.245Z,-1.30
2018-12-15T07:35:51.544Z,-1.40
2018-12-15T07:38:17.832Z,-1.50
2018-12-15T07:40:44.144Z,-1.30
2018-12-15T07:43:10.428Z,-1.40
2018-12-15T07:45:36.732Z,-1.30
2018-12-15T07:48:03.185Z,-1.30
2018-12-15T07:50:29.478Z,-1.20
2018-12-15T07:52:55.760Z,-1.20
2018-12-15T07:55:22.032Z,-1.10
2018-12-15T07:57:48.319Z,-1.30
2018-12-15T08:00:14.626Z,-1.30
2018-12-15T08:02:40.928Z,-1.10
2018-12-15T08:05:07.349Z,-1.20
2018-12-15T08:07:33.803Z,-1.30
2018-12-15T08:12:38.579Z,-1.30
2018-12-15T08:15:05.988Z,-1.10
2018-12-15T08:17:32.313Z,-1.30
2018-12-15T08:19:58.641Z,-1.20
2018-12-15T08:22:26.299Z,-1.50
2018-12-15T08:24:52.737Z,-1.30
2018-12-15T08:27:19.039Z,-1.20
2018-12-15T08:29:45.364Z,-1.30
2018-12-15T08:32:11.701Z,-1.20
2018-12-15T08:34:38.017Z,-1.20
2018-12-15T08:37:04.301Z,-1.10
2018-12-15T08:39:30.602Z,-1.00
2018-12-15T08:41:56.964Z,-1.10
2018-12-15T08:44:23.265Z,-1.10
2018-12-15T08:46:49.545Z,-1.50
2018-12-15T08:49:15.840Z,-1.30
2018-12-15T08:51:42.533Z,-1.30
2018-12-15T08:54:08.963Z,-1.30
2018-12-15T08:56:35.285Z,-1.30
2018-12-15T08:59:01.590Z,-1.00
2018-12-15T09:01:27.884Z,-1.20
2018-12-15T09:03:54.250Z,-1.20
2018-12-15T09:06:20.540Z,-1.20
2018-12-15T09:08:46.859Z,-1.10
2018-12-15T09:11:14.086Z,-1.10
2018-12-15T09:13:40.395Z,-0.90
2018-12-15T09:16:06.750Z,-1.10
2018-12-15T09:18:33.084Z,-0.90
2018-12-15T09:20:59.528Z,-1.00
2018-12-15T09:23:25.801Z,-1.10
2018-12-15T09:25:52.136Z,-1.10
2018-12-15T09:28:18.473Z,-1.20
2018-12-15T09:30:44.799Z,-1.00
2018-12-15T09:33:11.107Z,-1.10
2018-12-15T09:35:37.417Z,-1.10
2018-12-15T09:38:03.712Z,-1.10
2018-12-15T09:40:30.008Z,-1.10
2018-12-15T09:42:56.325Z,-1.10
2018-12-15T09:45:22.628Z,-1.00
2018-12-15T09:47:48.959Z,-0.80
2018-12-15T09:50:15.267Z,-0.80
2018-12-15T09:52:41.584Z,-0.80
2018-12-15T09:55:08.028Z,-1.10
2018-12-15T09:57:34.788Z,-1.10
2018-12-15T10:00:01.116Z,-1.00
2018-12-15T10:02:27.522Z,-1.00
2018-12-15T10:04:53.812Z,-0.90
2018-12-15T10:07:20.622Z,-0.90
2018-12-15T10:09:46.942Z,-1.00
2018-12-15T10:12:13.237Z,-0.80
2018-12-15T10:14:39.810Z,-1.00
2018-12-15T10:17:06.248Z,-1.00
2018-12-15T10:19:32.534Z,-1.00
2018-12-15T10:21:58.827Z,-0.90
2018-12-15T10:24:25.094Z,-0.80
2018-12-15T10:26:51.401Z,-1.00
2018-12-15T10:29:23.778Z,-0.90
2018-12-15T10:31:56.048Z,-0.90
2018-12-15T10:34:22.409Z,-1.00
2018-12-15T10:36:48.708Z,-1.40
2018-12-15T10:39:14.993Z,-0.90
2018-12-15T10:41:41.281Z,-1.00
2018-12-15T10:44:07.581Z,-0.70
2018-12-15T10:46:33.912Z,-1.00
2018-12-15T10:49:00.202Z,-0.90
2018-12-15T10:51:26.510Z,-0.90
2018-12-15T10:53:52.890Z,-0.80
2018-12-15T10:56:19.213Z,-0.90
2018-12-15T10:58:45.709Z,-0.90
2018-12-15T11:01:17.913Z,-0.90
2018-12-15T11:03:44.204Z,-0.80
2018-12-15T11:06:10.510Z,-0.80
2018-12-15T11:08:36.820Z,-0.80
2018-12-15T11:11:03.141Z,-1.00
2018-12-15T11:13:29.427Z,-0.60
2018-12-15T11:15:55.852Z,-0.60
2018-12-15T11:18:22.221Z,-1.30
2018-12-15T11:20:48.520Z,-0.80
2018-12-15T11:23:14.837Z,-0.80
2018-12-15T11:25:41.123Z,-1.10
2018-12-15T11:28:07.417Z,-0.90
2018-12-15T11:30:33.765Z,-1.10
2018-12-15T11:33:00.072Z,-0.70
2018-12-15T11:35:26.385Z,-0.70
2018-12-15T11:37:52.735Z,-0.80
2018-12-15T11:40:19.112Z,-0.80
2018-12-15T11:42:45.405Z,-0.80
2018-12-15T11:45:11.701Z,-0.70
2018-12-15T11:47:38.029Z,-0.70
2018-12-15T11:50:04.586Z,-0.70
2018-12-15T11:52:30.964Z,-0.60
2018-12-15T11:54:57.937Z,-0.80
2018-12-15T11:57:24.217Z,-0.90
2018-12-15T11:59:50.532Z,-0.80
2018-12-15T12:02:16.821Z,-0.70
2018-12-15T12:04:43.109Z,-0.70
2018-12-15T12:07:09.400Z,-0.70
2018-12-15T12:09:35.711Z,-0.70
2018-12-15T12:12:02.024Z,-0.70
2018-12-15T12:14:28.306Z,-0.70
2018-12-15T12:16:54.742Z,-0.80
2018-12-15T12:19:21.111Z,-0.70
2018-12-15T12:21:47.445Z,-1.20
2018-12-15T12:24:13.738Z,-0.70
2018-12-15T12:26:40.050Z,-0.80
2018-12-15T12:29:06.351Z,-1.10
2018-12-15T12:31:32.629Z,-0.80
2018-12-15T12:33:58.904Z,-0.90
2018-12-15T12:36:25.212Z,-1.30
2018-12-15T12:38:52.222Z,-0.60
2018-12-15T12:41:18.733Z,-0.80
2018-12-15T12:43:45.164Z,-0.90
2018-12-15T12:46:11.661Z,-0.80
2018-12-15T12:48:37.953Z,-0.70
2018-12-15T12:51:04.303Z,-0.80
2018-12-15T12:53:31.692Z,-0.70
2018-12-15T12:55:57.995Z,-0.70
2018-12-15T12:58:24.295Z,-0.80
2018-12-15T13:00:50.572Z,-0.70
2018-12-15T13:03:16.858Z,-0.90
2018-12-15T13:05:43.258Z,-0.70
2018-12-15T13:08:09.558Z,-0.80
2018-12-15T13:10:35.853Z,-0.80
2018-12-15T13:13:02.220Z,-0.80
2018-12-15T13:15:28.522Z,-0.80
2018-12-15T13:17:55.274Z,-0.70
2018-12-15T13:20:21.645Z,-0.60
2018-12-15T13:22:48.018Z,-0.60
2018-12-15T13:25:14.316Z,-0.80
2018-12-15T13:27:40.585Z,-0.70
2018-12-15T13:30:07.555Z,-0.70
2018-12-15T13:32:34.028Z,-0.70
2018-12-15T13:35:00.307Z,-0.70
2018-12-15T13:37:26.618Z,-0.70
2018-12-15T13:39:52.940Z,-1.10
2018-12-15T13:42:19.284Z,-0.90
2018-12-15T13:44:45.688Z,-0.70
2018-12-15T13:47:12.024Z,-0.70
2018-12-15T13:49:39.237Z,-0.70
2018-12-15T13:52:05.533Z,-0.50
2018-12-15T13:54:31.865Z,-0.30
2018-12-15T13:56:58.325Z,-0.60
2018-12-15T13:59:24.658Z,-0.70
2018-12-15T14:01:51.493Z,-0.60
2018-12-15T14:04:17.774Z,-0.60
2018-12-15T14:06:44.040Z,-0.60
2018-12-15T14:09:10.387Z,-0.60
2018-12-15T14:11:36.756Z,-0.50
2018-12-15T14:14:03.297Z,-0.50
2018-12-15T14:16:29.595Z,-0.70
2018-12-15T14:18:55.988Z,-0.70
2018-12-15T14:21:22.689Z,-0.50
2018-12-15T14:23:48.993Z,-0.90
2018-12-15T14:26:15.301Z,-1.20
2018-12-15T14:28:41.615Z,-0.80
2018-12-15T14:31:07.888Z,-0.60
2018-12-15T14:33:34.194Z,-0.80
2018-12-15T14:36:00.477Z,-0.80
2018-12-15T14:38:26.781Z,-0.80
2018-12-15T14:40:53.076Z,-0.60
2018-12-15T14:43:19.372Z,-0.60
2018-12-15T14:45:45.672Z,-0.50
2018-12-15T14:48:11.980Z,-0.60
2018-12-15T14:50:38.898Z,-0.60
2018-12-15T14:53:05.181Z,-0.60
2018-12-15T14:55:32.532Z,-0.60
2018-12-15T14:57:58.833Z,-0.40
2018-12-15T15:00:25.161Z,-0.40
2018-12-15T15:02:51.618Z,-0.50
2018-12-15T15:05:17.923Z,-0.40
2018-12-15T15:07:44.211Z,-0.40
2018-12-15T15:10:10.513Z,-0.20
2018-12-15T15:12:36.790Z,-0.30
2018-12-15T15:15:04.040Z,-0.40
2018-12-15T15:17:30.344Z,-0.20
2018-12-15T15:19:59.466Z,-0.30
2018-12-15T15:22:25.804Z,-0.50
2018-12-15T15:24:52.092Z,-0.40
2018-12-15T15:27:18.606Z,-0.40
2018-12-15T15:29:44.937Z,-0.40
2018-12-15T15:32:11.266Z,-0.40
2018-12-15T15:34:37.900Z,-0.50
2018-12-15T15:37:04.268Z,-0.60
2018-12-15T15:39:30.596Z,-0.60
2018-12-15T15:41:57.045Z,-0.60
2018-12-15T15:44:23.432Z,-0.80
2018-12-15T15:46:49.726Z,-1.00
2018-12-15T15:49:17.266Z,-0.60
2018-12-15T15:51:43.617Z,-0.50
2018-12-15T15:54:09.914Z,-0.50
2018-12-15T15:56:36.420Z,-0.20
2018-12-15T15:59:03.869Z,-0.40
2018-12-15T16:01:30.180Z,-0.40
2018-12-15T16:03:56.665Z,-0.50
2018-12-15T16:06:23.046Z,-0.50
2018-12-15T16:08:49.332Z,-0.60
2018-12-15T16:11:15.634Z,-0.50
2018-12-15T16:13:41.917Z,-0.60
2018-12-15T16:16:20.427Z,-0.50
2018-12-15T16:18:46.735Z,-0.60
2018-12-15T16:21:13.050Z,-0.60
2018-12-15T16:23:39.569Z,-0.70
2018-12-15T16:26:05.846Z,-0.60
2018-12-15T16:28:32.156Z,-0.60
2018-12-15T16:30:58.701Z,-0.60
2018-12-15T16:33:25.003Z,-0.60
2018-12-15T16:35:51.338Z,-0.60
2018-12-15T16:38:17.830Z,-0.50
2018-12-15T16:40:44.156Z,-0.60
2018-12-15T16:43:10.506Z,-0.60
2018-12-15T16:45:37.284Z,-0.40
2018-12-15T16:48:03.596Z,-0.60
2018-12-15T16:50:29.888Z,-0.60
2018-12-15T16:52:56.431Z,-0.50
2018-12-15T16:55:22.937Z,-0.60
2018-12-15T16:57:49.228Z,-0.40
2018-12-15T17:00:15.684Z,-1.10
2018-12-15T17:02:42.038Z,-0.60
2018-12-15T17:05:08.562Z,-0.60
2018-12-15T17:07:36.168Z,-0.70
2018-12-15T17:10:04.695Z,-0.70
2018-12-15T17:12:30.985Z,-0.50
2018-12-15T17:14:57.570Z,-0.60
2018-12-15T17:17:26.804Z,-0.60
2018-12-15T17:19:53.119Z,-0.60
2018-12-15T17:22:19.541Z,-0.50
2018-12-15T17:24:45.876Z,-0.60
2018-12-15T17:27:16.204Z,-0.60
2018-12-15T17:29:42.641Z,-0.50
2018-12-15T17:32:08.929Z,-0.50
2018-12-15T17:34:35.208Z,-0.40
2018-12-15T17:37:01.627Z,-0.50
2018-12-15T17:39:28.185Z,-0.50
2018-12-15T17:41:54.459Z,-0.50
2018-12-15T17:44:20.902Z,-0.40
2018-12-15T17:46:47.186Z,-0.50
2018-12-15T17:49:13.504Z,-0.30
2018-12-15T17:51:40.244Z,-0.90
2018-12-15T17:54:06.524Z,-0.50
2018-12-15T17:56:32.810Z,-0.50
2018-12-15T17:58:59.236Z,-0.40
2018-12-15T18:01:25.525Z,-0.80
2018-12-15T18:03:51.794Z,-0.40
2018-12-15T18:06:18.215Z,-0.50
2018-12-15T18:08:44.509Z,-0.40
2018-12-15T18:11:10.844Z,-0.50
2018-12-15T18:13:37.519Z,-0.40
2018-12-15T18:16:03.816Z,-0.20
2018-12-15T18:18:30.084Z,-0.40
2018-12-15T18:20:56.487Z,-0.50
2018-12-15T18:23:22.808Z,-0.40
2018-12-15T18:25:49.267Z,-0.40
2018-12-15T18:28:15.737Z,-0.30
2018-12-15T18:30:42.004Z,-0.50
2018-12-15T18:33:09.277Z,-0.70
2018-12-15T18:35:36.039Z,-0.50
2018-12-15T18:38:02.357Z,-0.30
2018-12-15T18:40:28.654Z,-0.40
2018-12-15T18:42:58.050Z,-0.60
2018-12-15T18:45:24.338Z,-0.50
2018-12-15T18:47:50.644Z,-0.50
2018-12-15T18:50:17.396Z,-0.60
2018-12-15T18:52:43.725Z,-0.50
2018-12-15T18:55:10.021Z,-0.70
2018-12-15T18:57:36.457Z,-0.50
2018-12-15T19:00:05.104Z,-0.60
2018-12-15T19:02:31.466Z,-0.50
2018-12-15T19:04:57.865Z,-0.60
2018-12-15T19:07:24.165Z,-0.40
2018-12-15T19:09:50.441Z,-0.50
2018-12-15T19:12:17.155Z,-0.30
2018-12-15T19:14:43.444Z,-0.90
2018-12-15T19:17:09.740Z,-0.40
2018-12-15T19:19:36.200Z,-0.30
2018-12-15T19:22:02.513Z,-0.80
2018-12-15T19:24:28.806Z,-0.30
2018-12-15T19:26:55.445Z,-0.30
2018-12-15T19:29:21.742Z,-0.10
2018-12-15T19:31:48.035Z,-0.40
2018-12-15T19:34:17.505Z,-0.10
2018-12-15T19:36:42.735Z,-0.40
2018-12-15T19:39:09.041Z,-0.40
2018-12-15T19:41:35.580Z,-0.10
2018-12-15T19:44:01.872Z,-0.60
2018-12-15T19:46:28.156Z,-0.50
2018-12-15T19:48:54.548Z,-0.40
2018-12-15T19:51:20.830Z,-0.40
2018-12-15T19:53:47.660Z,-0.40
2018-12-15T19:56:14.489Z,-0.30
2018-12-15T19:58:40.772Z,-0.10
2018-12-15T20:01:07.059Z,-0.20
2018-12-15T20:03:33.796Z,-0.30
2018-12-15T20:06:00.072Z,-0.20
2018-12-15T20:08:26.406Z,-0.20
2018-12-15T20:10:53.098Z,-0.30
2018-12-15T20:13:19.391Z,-0.10
2018-12-15T20:15:45.701Z,-0.30
2018-12-15T20:18:12.408Z,-0.40
2018-12-15T20:20:38.702Z,-0.30
2018-12-15T20:23:05.126Z,-0.10
2018-12-15T20:25:31.714Z,-0.40
2018-12-15T20:27:58.142Z,-0.20
2018-12-15T20:30:24.450Z,-0.20
2018-12-15T20:32:51.020Z,-0.20
2018-12-15T20:35:17.295Z,-0.20
2018-12-15T20:37:43.592Z,-0.20
2018-12-15T20:40:10.307Z,-0.20
2018-12-15T20:42:36.656Z,-0.20
2018-12-15T20:45:03.912Z,0.00
2018-12-15T20:47:30.537Z,-0.20
2018-12-15T20:49:56.816Z,-0.20
2018-12-15T20:52:23.158Z,-0.30
2018-12-15T20:54:49.665Z,-0.30
2018-12-15T20:57:15.964Z,-0.20
2018-12-15T20:59:42.271Z,-0.10
2018-12-15T21:02:08.827Z,-0.10
2018-12-15T21:04:35.122Z,0.20
2018-12-15T21:07:01.505Z,0.00
2018-12-15T21:09:27.809Z,0.00
2018-12-15T21:11:54.149Z,0.10
2018-12-15T21:14:20.553Z,0.20
2018-12-15T21:16:47.117Z,0.00
2018-12-15T21:19:13.706Z,0.00
2018-12-15T21:21:39.988Z,0.30
2018-12-15T21:24:06.730Z,0.10
2018-12-15T21:26:33.104Z,0.10
2018-12-15T21:28:59.448Z,0.20
2018-12-15T21:31:25.819Z,0.20
2018-12-15T21:33:52.134Z,0.00
2018-12-15T21:36:18.472Z,0.30
2018-12-15T21:38:44.748Z,0.20
2018-12-15T21:41:11.032Z,0.20
2018-12-15T21:43:37.316Z,0.10
2018-12-15T21:46:03.782Z,0.30
2018-12-15T21:48:30.061Z,0.30
2018-12-15T21:50:56.400Z,0.30
2018-12-15T21:53:23.069Z,0.40
2018-12-15T21:55:49.374Z,0.30
2018-12-15T21:58:15.665Z,0.50
2018-12-15T22:00:41.972Z,0.30
2018-12-15T22:03:08.248Z,0.30
2018-12-15T22:05:34.578Z,0.40
2018-12-15T22:08:01.317Z,0.30
2018-12-15T22:10:27.614Z,0.40
2018-12-15T22:12:53.899Z,0.40
2018-12-15T22:15:20.629Z,0.40
2018-12-15T22:17:47.076Z,0.10
2018-12-15T22:20:13.838Z,0.40
2018-12-15T22:22:40.527Z,0.50
2018-12-15T22:25:06.981Z,0.40
2018-12-15T22:27:33.260Z,0.70
2018-12-15T22:29:59.806Z,0.70
2018-12-15T22:32:26.084Z,0.60
2018-12-15T22:34:52.510Z,0.50
2018-12-15T22:37:18.970Z,0.60
2018-12-15T22:39:45.249Z,0.60
2018-12-15T22:42:11.512Z,0.60
2018-12-15T22:44:38.012Z,0.60
2018-12-15T22:47:04.278Z,0.70
2018-12-15T22:49:30.553Z,0.60
2018-12-15T22:51:57.442Z,0.60
2018-12-15T22:54:23.721Z,0.60
2018-12-15T22:56:50.020Z,0.60
2018-12-15T22:59:16.793Z,0.70
2018-12-15T23:01:44.845Z,0.90
2018-12-15T23:04:11.510Z,0.70
2018-12-15T23:06:37.885Z,0.80
2018-12-15T23:09:05.313Z,0.90
2018-12-15T23:11:31.677Z,0.70
2018-12-15T23:13:57.998Z,0.70
2018-12-15T23:16:24.338Z,0.80
2018-12-15T23:18:50.629Z,1.00
2018-12-15T23:21:17.396Z,0.80
2018-12-15T23:23:44.048Z,0.80
2018-12-15T23:26:10.396Z,1.00
2018-12-15T23:28:36.799Z,1.00
2018-12-15T23:31:03.163Z,0.80
2018-12-15T23:33:29.468Z,0.80
2018-12-15T23:35:55.752Z,0.80
2018-12-15T23:38:22.024Z,0.80
2018-12-15T23:40:48.575Z,0.80
2018-12-15T23:43:14.925Z,0.80
2018-12-15T23:45:41.208Z,0.80
2018-12-15T23:48:07.501Z,1.00
2018-12-15T23:50:33.794Z,1.10
2018-12-15T23:53:00.100Z,1.10
2018-12-15T23:55:26.381Z,0.60
2018-12-15T23:57:53.288Z,0.90
